Archival Weather

Fukuoka

Fukuoka, Japan (RJFF)

Report from: Tuesday, August 16, 2022 2:14 PM JST
Current time: Sunday, November 27, 2022 4:49 PM JST

Current weather
Weather history
Weather forecast

Present weatherLight thunderstorm with rain
Temperature28.0°C (82.4°F)
Heat index32.7°C (90.9°F)
Dew point25.0°C (77.0°F)
Winds 5 kts (2.6 m/s, 5.8 mph) Vrb
Winds variableWinds variable from South (170°) to West (280°)
Visibility6.2 mi. (10 km)
Clouds Few clouds 800 ft. (244 m)
Few clouds with cumulonimbus 2,000 ft. (610 m)
Scattered clouds 3,000 ft. (914 m)
Ceiling: Broken clouds 6,000 ft. (1,829 m)
Altimeter29.74 in.Hg (1007 mB)
Precip. events C 2:01 PM
Relative humidity84 %
Density altitude2,129 ft. (649 m)
Remarks Special weather observation
Thunderstorm northeast moving northeast
Flight conditions Visual Meteorological Conditions
Raw dataSPJP31 KWBC 160529 SPECI RJFF 160514Z 22005KT 170V280 9999 -TSRA FEW008 FEW020CB SCT030 BKN060 28/25 Q1007 RMK 1ST008 1CB020 3CU030 5SC060 A2974 FBL TS 15KM NE MOV NE
An error has occurred. This application may no longer respond until reloaded. Reload 🗙